Time;durP1;ratioP1;P1;durP2;ratioP2;P2;SDS_P1;SDS_P2;PMS_P1;PMS_P2;Temp;Humidity;BMP_temperature;BMP_pressure;BME280_temperature;BME280_humidity;BME280_pressure;Samples;Min_cycle;Max_cycle;Signal;HPM_P1;HPM_P2
2021/04/18 00:07:32;;;;;;;25.50;20.17;;;;;;;-142.06;100.00;64312.41;5063946;23;20253;-82
2021/04/18 00:12:48;;;;;;;24.10;19.23;;;;;;;-142.06;100.00;64312.41;5064048;23;20240;-83
2021/04/18 00:16:50;;;;;;;23.43;18.77;;;;;;;;;;5133436;27;20321;-83
2021/04/18 00:19:57;;;;;;;24.20;19.37;;;;;;;;;;5192221;22;20208;-83
2021/04/18 00:26:52;;;;;;;24.17;19.13;;;;;;;;;;5175599;22;20290;-83
2021/04/18 00:30:04;;;;;;;22.43;18.80;;;;;;;;;;5072800;28;20229;-83
2021/04/18 00:37:18;;;;;;;24.53;19.17;;;;;;;;;;5071704;28;20231;-83
2021/04/18 00:40:31;;;;;;;23.43;19.07;;;;;;;;;;5085284;28;20246;-83
2021/04/18 00:44:06;;;;;;;24.67;19.03;;;;;;;;;;5071104;28;20218;-83
2021/04/18 00:47:03;;;;;;;24.97;19.63;;;;;;;;;;5080376;22;20746;-83
2021/04/18 00:57:12;;;;;;;25.30;19.50;;;;;;;;;;4993689;28;20227;-82
2021/04/18 01:00:35;;;;;;;23.60;19.40;;;;;;;;;;5097901;23;21248;-82
2021/04/18 01:03:56;;;;;;;23.53;18.97;;;;;;;;;;5037496;28;20351;-82
2021/04/18 01:07:21;;;;;;;22.83;19.10;;;;;;;;;;5002138;23;20201;-82
2021/04/18 01:10:57;;;;;;;24.60;19.80;;;;;;;;;;5014446;23;20203;-82
2021/04/18 01:18:27;;;;;;;26.00;19.87;;;;;;;;;;5088228;23;20226;-82
2021/04/18 01:22:29;;;;;;;23.90;18.67;;;;;;;;;;5077052;28;20220;-81
2021/04/18 01:26:08;;;;;;;24.93;18.87;;;;;;;;;;5066240;23;20363;-82
2021/04/18 01:29:17;;;;;;;25.67;19.97;;;;;;;;;;5022397;28;20237;-82
2021/04/18 01:33:11;;;;;;;24.70;20.30;;;;;;;;;;5011307;28;20233;-82
2021/04/18 01:36:24;;;;;;;25.90;20.70;;;;;;;;;;5025272;28;20218;-82
2021/04/18 01:39:31;;;;;;;25.70;20.63;;;;;;;;;;5035371;28;20234;-83
2021/04/18 01:42:48;;;;;;;27.33;20.67;;;;;;;;;;5035042;28;20201;-83
2021/04/18 01:46:14;;;;;;;26.07;20.97;;;;;;;;;;5035308;28;20274;-83
2021/04/18 01:49:43;;;;;;;26.70;20.73;;;;;;;;;;5048773;23;20249;-82
2021/04/18 01:53:23;;;;;;;25.33;20.50;;;;;;;;;;5054718;28;20219;-82
2021/04/18 01:56:38;;;;;;;26.50;20.87;;;;;;;;;;5051437;28;20221;-83
2021/04/18 02:03:20;;;;;;;24.57;20.10;;;;;;;;;;5057891;22;20179;31
2021/04/18 02:06:37;;;;;;;24.17;19.50;;;;;;;;;;5010700;23;20231;-82
2021/04/18 02:10:15;;;;;;;25.40;20.07;;;;;;;;;;5072227;23;20237;-82
2021/04/18 02:13:37;;;;;;;24.30;20.07;;;;;;;;;;5026000;28;20257;-82
2021/04/18 02:21:09;;;;;;;25.77;19.80;;;;;;;;;;5036058;28;20248;-83
2021/04/18 02:25:18;;;;;;;23.33;18.57;;;;;;;;;;5013488;28;20235;-83
2021/04/18 02:32:06;;;;;;;24.07;19.63;;;;;;;;;;5055969;28;20236;-82
2021/04/18 02:35:49;;;;;;;25.10;20.17;;;;;;;;;;5020872;28;20229;-82
2021/04/18 02:39:23;;;;;;;26.30;19.90;;;;;;;;;;5031222;23;20241;-82
2021/04/18 02:42:38;;;;;;;25.23;20.50;;;;;;;;;;5028547;23;20226;-82
2021/04/18 02:46:06;;;;;;;25.60;20.20;;;;;;;;;;5130241;23;20240;-83
2021/04/18 02:49:47;;;;;;;26.17;20.37;;;;;;;;;;5008431;28;20221;-82
2021/04/18 02:53:28;;;;;;;26.57;20.23;;;;;;;;;;5095679;28;20211;-82
2021/04/18 02:56:56;;;;;;;25.63;20.20;;;;;;;;;;5069997;28;20209;-82
2021/04/18 03:00:29;;;;;;;26.60;20.03;;;;;;;;;;5107252;28;20329;-82
2021/04/18 03:04:12;;;;;;;29.27;21.60;;;;;;;;;;5072737;28;20235;-82
2021/04/18 03:07:39;;;;;;;25.37;20.80;;;;;;;;;;5073674;22;20292;-82
2021/04/18 03:11:31;;;;;;;26.20;20.70;;;;;;;;;;5035713;28;20272;-82
2021/04/18 03:14:58;;;;;;;25.93;20.63;;;;;;;;;;5065052;23;20240;-83
2021/04/18 03:18:08;;;;;;;26.53;21.03;;;;;;;;;;5081043;22;20221;-82
2021/04/18 03:21:07;;;;;;;26.60;20.30;;;;;;;;;;5072578;28;20662;-82
2021/04/18 03:24:37;;;;;;;25.87;21.20;;;;;;;;;;5146221;23;20225;-82
2021/04/18 03:28:36;;;;;;;27.97;21.13;;;;;;;;;;4987765;28;20268;-82
2021/04/18 03:32:06;;;;;;;25.80;20.17;;;;;;;;;;5110317;23;20240;-82
2021/04/18 03:35:30;;;;;;;26.57;21.13;;;;;;;;;;5064594;23;20237;-82
2021/04/18 03:39:06;;;;;;;26.33;20.93;;;;;;;;;;5040502;28;20256;-82
2021/04/18 03:42:39;;;;;;;27.53;20.80;;;;;;;;;;5099591;23;20250;-82
2021/04/18 03:45:50;;;;;;;26.87;20.53;;;;;;;;;;5077947;28;20213;-82
2021/04/18 03:49:32;;;;;;;28.57;21.40;;;;;;;;;;5067897;22;20234;-83
2021/04/18 03:57:15;;;;;;;28.13;20.13;;;;;;;;;;5113586;23;20236;-82
2021/04/18 04:00:41;;;;;;;27.00;19.63;;;;;;;;;;5073273;23;20217;-83
2021/04/18 04:04:09;;;;;;;27.07;20.37;;;;;;;;;;4999712;28;20225;-82
2021/04/18 04:08:11;;;;;;;25.10;19.83;;;;;;;;;;5052089;28;20240;-82
2021/04/18 04:11:47;;;;;;;23.43;18.77;;;;;;;;;;5172364;23;20315;-82
2021/04/18 04:15:20;;;;;;;27.73;19.80;;;;;;;;;;5073439;28;20217;-82
2021/04/18 04:23:09;;;;;;;24.07;19.60;;;;;;;;;;5042580;23;20235;-81
2021/04/18 04:26:39;;;;;;;26.43;20.23;;;;;;;;;;5044462;28;20229;-81
2021/04/18 04:30:14;;;;;;;25.80;19.53;;;;;;;;;;5081026;23;20235;-82
2021/04/18 04:33:18;;;;;;;25.60;19.40;;;;;;;;;;5079918;23;20228;-82
2021/04/18 04:41:07;;;;;;;26.93;20.07;;;;;;;;;;5043805;28;20201;-81
2021/04/18 04:44:16;;;;;;;25.77;19.60;;;;;;;;;;5061810;22;20247;-81
2021/04/18 04:48:01;;;;;;;26.27;20.03;;;;;;;;;;5064163;28;20215;-82
2021/04/18 04:51:43;;;;;;;25.43;18.87;;;;;;;;;;5031257;28;20214;-82
2021/04/18 04:55:42;;;;;;;25.30;19.50;;;;;;;;;;5133629;23;20235;-82
2021/04/18 04:59:12;;;;;;;24.63;18.87;;;;;;;;;;5101787;22;20219;-81
2021/04/18 05:09:42;;;;;;;26.07;19.97;;;;;;;;;;5132380;22;20662;-83
2021/04/18 05:13:07;;;;;;;28.37;20.33;;;;;;;;;;5045409;23;20260;-84
2021/04/18 05:16:37;;;;;;;25.50;18.97;;;;;;;;;;5034837;28;20222;-84
2021/04/18 05:19:40;;;;;;;26.23;20.33;;;;;;;;;;5129964;22;20195;-83
2021/04/18 05:23:06;;;;;;;28.27;19.70;;;;;;;;;;5035254;28;20218;-85
2021/04/18 05:26:32;;;;;;;26.10;19.60;;;;;;;;;;4969134;28;20225;-84
2021/04/18 05:30:35;;;;;;;26.53;20.77;;;;;;;;;;5007939;23;20239;-85
2021/04/18 05:34:13;;;;;;;26.43;20.20;;;;;;;;;;5165564;22;20224;-83
2021/04/18 05:41:13;;;;;;;28.20;21.10;;;;;;;;;;5050978;23;20224;-82
2021/04/18 05:44:22;;;;;;;29.37;20.87;;;;;;;;;;5057680;23;20221;-83
2021/04/18 05:48:04;;;;;;;27.97;20.53;;;;;;;;;;5078587;23;20239;-84
2021/04/18 05:51:12;;;;;;;30.57;22.13;;;;;;;;;;5077513;28;20173;-83
2021/04/18 05:54:54;;;;;;;26.87;21.33;;;;;;;;;;5166200;22;20253;-83
2021/04/18 05:58:28;;;;;;;29.00;21.33;;;;;;;;;;5071909;22;20204;-84
2021/04/18 06:02:14;;;;;;;29.50;21.53;;;;;;;;;;5075015;28;20221;-84
2021/04/18 06:05:27;;;;;;;27.80;21.53;;;;;;;;;;5076858;28;20204;-83
2021/04/18 06:08:42;;;;;;;30.50;22.13;;;;;;;;;;5057963;22;20206;-83
2021/04/18 06:11:41;;;;;;;27.60;21.27;;;;;;;;;;5076673;22;20235;-84
2021/04/18 06:14:48;;;;;;;27.13;20.67;;;;;;;;;;5055660;28;20210;-83
2021/04/18 06:18:16;;;;;;;25.53;19.97;;;;;;;;;;5050719;22;20248;-81
2021/04/18 06:21:36;;;;;;;26.40;19.90;;;;;;;;;;5075539;28;20249;-83
2021/04/18 06:25:30;;;;;;;27.87;21.37;;;;;;;;;;5077556;28;20192;-84
2021/04/18 06:28:51;;;;;;;28.33;21.87;;;;;;;;;;5056923;28;20247;-83
2021/04/18 06:32:16;;;;;;;28.50;20.83;;;;;;;;;;5079804;22;20240;-83
2021/04/18 06:35:39;;;;;;;27.03;21.90;;;;;;;;;;5073964;28;20209;-84
2021/04/18 06:39:06;;;;;;;27.47;20.47;;;;;;;;;;5069873;23;20245;-84
2021/04/18 06:46:01;;;;;;;26.30;20.57;;;;;;;;;;5078999;23;20241;-82
2021/04/18 06:52:28;;;;;;;26.47;20.90;;;;;;;;;;5031306;28;20211;-84
2021/04/18 06:56:30;;;;;;;25.93;20.87;;;;;;;;;;5033354;28;20229;-85
2021/04/18 07:00:07;;;;;;;26.00;20.67;;;;;;;;;;5003543;28;20226;-85
2021/04/18 07:03:16;;;;;;;27.50;20.33;;;;;;;;;;5032805;23;20211;-84
2021/04/18 07:06:08;;;;;;;28.77;21.17;;;;;;;;;;5034288;28;20217;-83
2021/04/18 07:09:06;;;;;;;28.93;21.47;;;;;;;;;;5032591;28;20214;-85
2021/04/18 07:12:33;;;;;;;25.13;19.80;;;;;;;;;;5040643;28;20243;-83
2021/04/18 07:15:46;;;;;;;24.57;20.27;;;;;;;;;;5050543;28;20220;-84
2021/04/18 07:19:17;;;;;;;27.23;19.83;;;;;;;;;;5018889;28;20217;-84
2021/04/18 07:22:06;;;;;;;26.30;20.23;;;;;;;;;;5047521;28;20226;-83
2021/04/18 07:25:12;;;;;;;26.07;20.43;;;;;;;;;;5051329;28;20222;-83
2021/04/18 07:28:43;;;;;;;25.63;20.07;;;;;;;;;;5025404;28;20261;-84
2021/04/18 07:31:58;;;;;;;27.70;20.50;;;;;;;;;;5040889;28;20230;-83
2021/04/18 07:34:45;;;;;;;23.30;19.60;;;;;;;;;;5021160;28;20226;-82
2021/04/18 07:37:36;;;;;;;24.60;20.67;;;;;;;;;;5015618;28;20289;-83
2021/04/18 07:40:33;;;;;;;27.40;21.07;;;;;;;;;;5024826;28;20234;-83
2021/04/18 07:43:31;;;;;;;26.53;20.43;;;;;;;;;;5021515;28;20652;-83
2021/04/18 07:46:20;;;;;;;27.03;19.90;;;;;;;;;;5028091;28;20222;-82
2021/04/18 07:49:12;;;;;;;25.57;19.57;;;;;;;;;;5027383;28;20299;-83
2021/04/18 07:51:57;;;;;;;25.57;20.50;;;;;;;;;;5024029;28;20722;-83
2021/04/18 07:55:00;;;;;;;26.27;20.50;;;;;;;;;;5035654;28;20253;-83
2021/04/18 07:57:48;;;;;;;28.43;20.43;;;;;;;;;;5025833;28;20516;-83
2021/04/18 08:00:36;;;;;;;28.47;20.60;;;;;;;;;;5021872;28;20234;-83
2021/04/18 08:03:28;;;;;;;27.93;19.93;;;;;;;;;;5022361;28;20280;-82
2021/04/18 08:05:58;;;;;;;28.37;20.83;;;;;;;;;;5020703;28;20226;-83
2021/04/18 08:08:53;;;;;;;27.23;20.13;;;;;;;;;;5024307;28;20210;-83
2021/04/18 08:11:24;;;;;;;25.80;19.67;;;;;;;;;;5003060;28;20246;-83
2021/04/18 08:14:02;;;;;;;26.87;20.30;;;;;;;;;;5015454;28;20226;-82
2021/04/18 08:16:37;;;;;;;25.97;19.77;;;;;;;;;;5031639;28;20241;-83
2021/04/18 08:19:19;;;;;;;26.97;20.50;;;;;;;;;;5038825;28;20218;-83
2021/04/18 08:21:52;;;;;;;26.47;20.07;;;;;;;;;;5003620;28;20211;-80
2021/04/18 08:24:38;;;;;;;28.63;20.37;;;;;;;;;;5028697;28;20251;-81
2021/04/18 08:27:30;;;;;;;25.57;19.77;;;;;;;;;;5014024;28;20313;-83
2021/04/18 08:30:12;;;;;;;24.93;20.03;;;;;;;;;;5021424;28;20232;-83
2021/04/18 08:32:50;;;;;;;28.43;20.57;;;;;;;;;;4981959;28;20223;-83
2021/04/18 08:35:30;;;;;;;25.47;19.47;;;;;;;;;;5003034;28;20306;-83
2021/04/18 08:38:15;;;;;;;24.60;20.00;;;;;;;;;;5024329;28;20533;-82
2021/04/18 08:41:17;;;;;;;26.93;19.87;;;;;;;;;;5025241;28;20223;-83
2021/04/18 08:44:14;;;;;;;24.30;19.17;;;;;;;;;;5024176;28;20539;-82
2021/04/18 08:47:03;;;;;;;27.87;19.77;;;;;;;;;;5015225;28;20214;-82
2021/04/18 08:49:47;;;;;;;27.27;19.60;;;;;;;;;;5019844;28;20249;-83
2021/04/18 08:52:22;;;;;;;25.63;19.10;;;;;;;;;;5008817;28;20229;-82
2021/04/18 08:55:12;;;;;;;23.60;19.00;;;;;;;;;;5001343;28;20258;-82
2021/04/18 08:57:55;;;;;;;23.77;18.20;;;;;;;;;;5012972;28;20247;-83
2021/04/18 09:00:43;;;;;;;24.80;19.37;;;;;;;;;;5001594;28;20563;-80
2021/04/18 09:03:32;;;;;;;24.83;18.53;;;;;;;;;;5017620;28;20235;-79
2021/04/18 09:06:26;;;;;;;23.47;18.37;;;;;;;;;;5015880;28;20648;-80
2021/04/18 09:09:12;;;;;;;23.93;18.50;;;;;;;;;;5027528;28;20295;-84
2021/04/18 09:12:02;;;;;;;24.77;18.27;;;;;;;;;;5034436;28;20218;-83
2021/04/18 09:14:56;;;;;;;21.97;17.47;;;;;;;;;;5022213;28;20265;-83
2021/04/18 09:17:41;;;;;;;24.93;18.67;;;;;;;;;;5027503;28;20317;-83
2021/04/18 09:20:33;;;;;;;22.80;18.23;;;;;;;;;;5031615;28;20247;-83
2021/04/18 09:23:19;;;;;;;22.80;18.10;;;;;;;;;;5017602;28;20222;-83
2021/04/18 09:26:10;;;;;;;24.13;17.17;;;;;;;;;;5036569;28;20218;-83
2021/04/18 09:29:02;;;;;;;22.03;17.57;;;;;;;;;;4987569;28;20226;-83
2021/04/18 09:32:00;;;;;;;22.33;16.97;;;;;;;;;;5023539;28;20248;-83
2021/04/18 09:34:52;;;;;;;21.63;17.20;;;;;;;;;;5027019;28;20221;-83
2021/04/18 09:37:44;;;;;;;22.23;17.77;;;;;;;;;;5041024;28;20225;-83
2021/04/18 09:40:36;;;;;;;22.53;17.67;;;;;;;;;;5010379;28;20226;-83
2021/04/18 09:43:35;;;;;;;23.97;18.03;;;;;;;;;;5015941;28;20244;-83
2021/04/18 09:46:14;;;;;;;22.90;18.07;;;;;;;;;;5040134;28;20279;-84
2021/04/18 09:49:02;;;;;;;24.37;18.20;;;;;;;;;;5024115;28;20287;-83
2021/04/18 09:52:04;;;;;;;24.17;18.07;;;;;;;;;;5039628;28;20271;-83
2021/04/18 09:54:39;;;;;;;25.50;18.47;;;;;;;;;;4975822;28;20278;-84
2021/04/18 09:57:20;;;;;;;25.40;18.77;;;;;;;;;;5022722;28;20524;-82
2021/04/18 10:00:09;;;;;;;23.83;18.47;;;;;;;;;;5023811;28;20331;-83
2021/04/18 10:03:14;;;;;;;23.50;17.73;;;;;;;;;;5004958;28;20219;-83
2021/04/18 10:06:09;;;;;;;23.50;17.93;;;;;;;;;;4993634;28;20309;-83
2021/04/18 10:08:55;;;;;;;23.33;17.67;;;;;;;;;;5028100;28;20227;-83
2021/04/18 10:11:39;;;;;;;24.70;18.70;;;;;;;;;;4988499;28;20571;-83
2021/04/18 10:14:20;;;;;;;24.17;18.37;;;;;;;;;;5018856;28;20226;-83
2021/04/18 10:17:14;;;;;;;24.00;18.27;;;;;;;;;;4998847;28;20765;-84
2021/04/18 10:20:09;;;;;;;21.60;17.67;;;;;;;;;;5003796;28;20230;-82
2021/04/18 10:23:11;;;;;;;23.70;17.53;;;;;;;;;;5040587;28;20566;-83
2021/04/18 10:25:55;;;;;;;24.90;18.23;;;;;;;;;;5043312;28;20231;-83
2021/04/18 10:29:05;;;;;;;23.10;17.80;;;;;;;;;;5025966;28;20245;-82
2021/04/18 10:31:54;;;;;;;21.43;16.43;;;;;;;;;;5019694;28;20238;-83
2021/04/18 10:34:36;;;;;;;20.80;15.83;;;;;;;;;;5052208;28;20230;-83
2021/04/18 10:37:25;;;;;;;19.33;16.20;;;;;;;;;;5018799;28;20222;-83
2021/04/18 10:40:08;;;;;;;21.37;16.57;;;;;;;;;;5034248;28;20290;-83
2021/04/18 10:43:02;;;;;;;21.47;16.40;;;;;;;;;;5006274;28;22098;-83
2021/04/18 10:45:46;;;;;;;20.40;16.30;;;;;;;;;;5018055;28;20215;-82
2021/04/18 10:48:51;;;;;;;21.53;15.73;;;;;;;;;;5015696;28;20227;-83
2021/04/18 10:51:40;;;;;;;17.80;15.33;;;;;;;;;;5022924;28;20304;-83
2021/04/18 10:54:22;;;;;;;21.27;15.90;;;;;;;;;;5038126;28;20725;-83
2021/04/18 10:57:06;;;;;;;18.53;15.30;;;;;;;;;;5022701;28;20231;-83
2021/04/18 10:59:47;;;;;;;19.20;14.60;;;;;;;;;;5031974;28;20251;-83
2021/04/18 11:02:41;;;;;;;20.30;15.93;;;;;;;;;;5009119;28;20219;-83
2021/04/18 11:05:31;;;;;;;19.10;15.40;;;;;;;;;;5014912;28;20245;-83
2021/04/18 11:08:11;;;;;;;18.17;14.97;;;;;;;;;;5034394;28;20711;-83
2021/04/18 11:10:54;;;;;;;18.60;14.50;;;;;;;;;;5037486;28;20250;-81
2021/04/18 11:13:39;;;;;;;19.63;14.90;;;;;;;;;;5017146;28;20223;-81
2021/04/18 11:16:23;;;;;;;18.50;15.63;;;;;;;;;;5008476;28;20227;-80
2021/04/18 11:19:09;;;;;;;19.50;15.30;;;;;;;;;;5014813;28;20276;-81
2021/04/18 11:21:51;;;;;;;17.80;14.83;;;;;;;;;;5012141;28;20215;-81
2021/04/18 11:24:30;;;;;;;19.27;14.90;;;;;;;;;;4985071;28;20222;-81
2021/04/18 11:27:35;;;;;;;19.13;13.73;;;;;;;;;;5009482;28;20653;-81
2021/04/18 11:30:22;;;;;;;19.30;14.00;;;;;;;;;;4996084;28;20231;-81
2021/04/18 11:33:12;;;;;;;18.30;14.03;;;;;;;;;;4983283;28;20224;-80
2021/04/18 11:36:03;;;;;;;16.63;13.10;;;;;;;;;;5034495;28;20272;-82
2021/04/18 11:38:54;;;;;;;18.47;13.50;;;;;;;;;;5001230;28;20218;-82
2021/04/18 11:41:42;;;;;;;15.37;12.30;;;;;;;;;;5018345;28;20230;-82
2021/04/18 11:44:23;;;;;;;16.60;12.20;;;;;;;;;;5006864;28;20213;-83
2021/04/18 11:47:15;;;;;;;16.60;12.57;;;;;;;;;;5026587;28;20233;-82
2021/04/18 11:49:50;;;;;;;14.23;11.73;;;;;;;;;;5030896;28;20226;-82
2021/04/18 11:52:43;;;;;;;15.90;12.73;;;;;;;;;;5029298;28;20233;-82
2021/04/18 11:55:36;;;;;;;14.93;12.30;;;;;;;;;;5000305;28;20246;-82
2021/04/18 11:58:20;;;;;;;14.60;12.00;;;;;;;;;;5011230;28;20227;-82
2021/04/18 12:00:58;;;;;;;13.77;11.53;;;;;;;;;;5021015;28;20221;-82
2021/04/18 12:03:44;;;;;;;14.93;11.87;;;;;;;;;;5018491;28;20235;-82
2021/04/18 12:06:36;;;;;;;15.50;11.90;;;;;;;;;;5000872;28;20276;-82
2021/04/18 12:09:26;;;;;;;14.50;11.70;;;;;;;;;;5020854;28;20222;-82
2021/04/18 12:12:16;;;;;;;14.80;12.00;;;;;;;;;;5017626;28;20227;-82
2021/04/18 12:15:04;;;;;;;16.50;11.73;;;;;;;;;;5032451;28;20249;-82
2021/04/18 12:17:55;;;;;;;14.13;12.13;;;;;;;;;;5031569;28;20689;-82
2021/04/18 12:20:45;;;;;;;14.87;11.70;;;;;;;;;;5023657;28;20217;-82
2021/04/18 12:23:26;;;;;;;14.13;11.53;;;;;;;;;;5021484;28;20257;-82
2021/04/18 12:26:00;;;;;;;15.67;12.87;;;;;;;;;;5011153;28;20313;-82
2021/04/18 12:28:45;;;;;;;16.73;12.53;;;;;;;;;;5048076;28;20244;-82
2021/04/18 12:31:39;;;;;;;15.60;12.57;;;;;;;;;;5032068;28;20223;-82
2021/04/18 12:34:32;;;;;;;16.30;12.77;;;;;;;;;;5014200;28;20234;-83
2021/04/18 12:37:23;;;;;;;15.43;12.40;;;;;;;;;;5016385;28;20219;-82
2021/04/18 12:40:16;;;;;;;15.70;12.40;;;;;;;;;;5016396;28;20277;-82
2021/04/18 12:43:11;;;;;;;16.30;12.37;;;;;;;;;;5001832;28;20232;-82
2021/04/18 12:45:55;;;;;;;17.40;13.13;;;;;;;;;;5037052;28;20242;-82
2021/04/18 12:48:41;;;;;;;17.47;13.20;;;;;;;;;;5015058;28;20233;-82
2021/04/18 12:51:27;;;;;;;16.63;12.87;;;;;;;;;;4989234;28;20234;-82
2021/04/18 12:54:12;;;;;;;16.10;13.10;;;;;;;;;;5012321;28;20274;-82
2021/04/18 12:56:56;;;;;;;16.03;12.63;;;;;;;;;;5012823;28;20222;-82
2021/04/18 12:59:42;;;;;;;15.43;12.67;;;;;;;;;;5031527;28;20227;-82
2021/04/18 13:02:29;;;;;;;15.70;13.33;;;;;;;;;;5016719;28;20227;-82
2021/04/18 13:05:12;;;;;;;17.27;13.10;;;;;;;;;;5000341;28;20230;-82
2021/04/18 13:08:04;;;;;;;16.20;13.17;;;;;;;;;;4965641;28;20228;-80
2021/04/18 13:10:49;;;;;;;15.63;12.50;;;;;;;;;;5000369;28;20223;-81
2021/04/18 13:13:41;;;;;;;17.00;13.13;;;;;;;;;;5000686;28;20530;-80
2021/04/18 13:16:29;;;;;;;16.77;12.73;;;;;;;;;;5004845;28;20257;-80
2021/04/18 13:19:18;;;;;;;17.33;12.73;;;;;;;;;;5015392;28;20230;-81
2021/04/18 13:22:07;;;;;;;17.63;13.23;;;;;;;;;;5011636;28;20288;-80
2021/04/18 13:24:55;;;;;;;17.30;13.20;;;;;;;;;;5017479;28;20322;-80
2021/04/18 13:27:49;;;;;;;17.20;12.97;;;;;;;;;;4997846;28;20237;-80
2021/04/18 13:30:39;;;;;;;17.80;13.30;;;;;;;;;;4986392;28;20234;-80
2021/04/18 13:33:28;;;;;;;16.70;12.77;;;;;;;;;;5000927;28;20233;-80
2021/04/18 13:36:15;;;;;;;15.47;12.00;;;;;;;;;;4970326;28;20563;-80
2021/04/18 13:39:02;;;;;;;17.93;12.90;;;;;;;;;;4981445;28;20215;-80
2021/04/18 13:41:50;;;;;;;17.83;13.00;;;;;;;;;;4983211;28;20307;-80
2021/04/18 13:44:40;;;;;;;16.77;12.50;;;;;;;;;;5015149;28;20241;-80
2021/04/18 13:47:27;;;;;;;18.53;13.20;;;;;;;;;;5023461;28;20227;-80
2021/04/18 13:50:15;;;;;;;15.20;12.77;;;;;;;;;;5016727;28;20226;-80
2021/04/18 13:53:09;;;;;;;16.83;13.27;;;;;;;;;;4980521;28;20223;-80
2021/04/18 13:56:02;;;;;;;16.67;12.83;;;;;;;;;;4982650;28;20223;-80
2021/04/18 13:58:51;;;;;;;16.60;13.13;;;;;;;;;;5005186;23;20231;-81
2021/04/18 14:01:55;;;;;;;16.03;12.93;;;;;;;;;;5079263;28;20216;-80
2021/04/18 14:04:47;;;;;;;18.73;15.57;;;;;;;;;;5062509;28;20229;-81
2021/04/18 14:07:40;;;;;;;16.13;12.93;;;;;;;;;;5086855;28;20274;-81
2021/04/18 14:10:36;;;;;;;15.53;12.50;;;;;;;;;;5087809;28;20251;-81
2021/04/18 14:13:28;;;;;;;17.07;13.50;;;;;;;;;;5083858;28;20236;-82
2021/04/18 14:16:18;;;;;;;17.73;14.10;;;;;;;;;;5087558;28;20228;-81
2021/04/18 14:19:08;;;;;;;16.97;14.03;;;;;;;;;;5085281;28;20204;-82
2021/04/18 14:22:00;;;;;;;16.47;13.83;;;;;;;;;;5085442;28;20220;-81
2021/04/18 14:25:05;;;;;;;16.00;13.60;;;;;;;;;;5080403;28;20250;-80
2021/04/18 14:28:04;;;;;;;17.67;14.17;;;;;;;;;;5077355;28;20282;-81
2021/04/18 14:30:49;;;;;;;17.17;14.33;;;;;;;;;;5086253;28;20228;-82
2021/04/18 14:33:27;;;;;;;16.67;14.40;;;;;;;;;;5085714;28;20239;-82
2021/04/18 14:36:22;;;;;;;17.73;14.27;;;;;;;;;;5085370;28;20295;-82
2021/04/18 14:39:32;;;;;;;19.37;15.03;;;;;;;;;;5085072;28;20224;-81
2021/04/18 14:42:17;;;;;;;20.23;16.47;;;;;;;;;;5079753;28;20221;-82
2021/04/18 14:44:58;;;;;;;16.73;13.57;;;;;;;;;;5066136;28;20221;-82
2021/04/18 14:47:40;;;;;;;16.23;13.63;;;;;;;;;;5076799;28;20216;-81
2021/04/18 14:50:42;;;;;;;16.97;14.17;;;;;;;;;;5077599;28;20239;-81
2021/04/18 14:53:25;;;;;;;16.73;14.07;;;;;;;;;;5079152;28;20217;-82
2021/04/18 14:56:13;;;;;;;17.50;13.37;;;;;;;;;;5064242;28;20282;-81
2021/04/18 14:58:48;;;;;;;15.30;13.60;;;;;;;;;;5064858;28;20310;-82
2021/04/18 15:01:30;;;;;;;17.00;14.10;;;;;;;;;;5064174;28;20221;-81
2021/04/18 15:04:22;;;;;;;16.10;14.37;;;;;;;;;;5065767;28;20845;-82
2021/04/18 15:06:58;;;;;;;16.40;13.83;;;;;;;;;;5064699;28;20251;-81
2021/04/18 15:09:33;;;;;;;16.10;13.67;;;;;;;;;;5086614;28;20236;-81
2021/04/18 15:12:15;;;;;;;18.10;13.53;;;;;;;;;;5082500;28;20228;-81
2021/04/18 15:14:46;;;;;;;15.90;13.47;;;;;;;;;;5064184;28;20250;-81
2021/04/18 15:17:26;;;;;;;17.13;14.03;;;;;;;;;;5068453;28;20221;-81
2021/04/18 15:20:13;;;;;;;16.43;13.83;;;;;;;;;;5091724;28;20224;-82
2021/04/18 15:22:50;;;;;;;17.03;13.97;;;;;;;;;;5079130;28;20188;-81
2021/04/18 15:25:38;;;;;;;17.53;13.73;;;;;;;;;;5064188;28;20229;-82
2021/04/18 15:28:20;;;;;;;17.63;14.83;;;;;;;;;;5074791;28;20228;-80
2021/04/18 15:31:09;;;;;;;17.27;13.80;;;;;;;;;;5085183;28;20227;-82
2021/04/18 15:33:51;;;;;;;16.50;14.23;;;;;;;;;;5073052;28;20271;-83
2021/04/18 15:36:37;;;;;;;16.53;13.87;;;;;;;;;;5053987;28;20223;-84
2021/04/18 15:39:10;;;;;;;16.90;13.50;;;;;;;;;;5065808;28;20193;-84
2021/04/18 15:41:51;;;;;;;16.43;13.73;;;;;;;;;;5066468;28;20225;-84
2021/04/18 15:44:38;;;;;;;15.83;13.43;;;;;;;;;;5057362;28;20239;-83
2021/04/18 15:47:21;;;;;;;16.00;13.17;;;;;;;;;;5064746;28;20236;-82
2021/04/18 15:50:11;;;;;;;15.80;12.70;;;;;;;;;;5063281;28;20300;-82
2021/04/18 15:52:58;;;;;;;17.10;13.80;;;;;;;;;;5068411;28;20185;-82
2021/04/18 15:55:46;;;;;;;16.33;14.20;;;;;;;;;;5082456;28;20224;-81
2021/04/18 15:58:36;;;;;;;17.30;13.83;;;;;;;;;;5075928;28;20221;-81
2021/04/18 16:01:28;;;;;;;15.67;13.00;;;;;;;;;;5062104;28;20252;-81
2021/04/18 16:04:14;;;;;;;15.37;13.53;;;;;;;;;;5083038;28;20227;-82
2021/04/18 16:06:52;;;;;;;15.87;12.93;;;;;;;;;;5069363;28;20223;-82
2021/04/18 16:09:30;;;;;;;15.03;13.43;;;;;;;;;;5092097;22;20255;-82
2021/04/18 16:12:14;;;;;;;16.20;13.93;;;;;;;;;;5064077;28;20229;-82
2021/04/18 16:15:04;;;;;;;16.37;13.80;;;;;;;;;;5057110;28;20682;-82
2021/04/18 16:17:51;;;;;;;17.33;13.20;;;;;;;;;;5064496;28;20217;-81
2021/04/18 16:20:49;;;;;;;15.70;13.37;;;;;;;;;;5065047;28;20225;-82
2021/04/18 16:23:26;;;;;;;15.43;13.07;;;;;;;;;;5060854;28;20279;-81
2021/04/18 16:26:18;;;;;;;15.13;12.40;;;;;;;;;;5065297;28;20268;-82
2021/04/18 16:29:15;;;;;;;14.50;12.70;;;;;;;;;;5062611;28;20235;-81
2021/04/18 16:32:15;;;;;;;16.03;12.93;;;;;;;;;;5049599;28;20235;-83
2021/04/18 16:35:06;;;;;;;14.80;13.30;;;;;;;;;;5066078;28;20245;-80
2021/04/18 16:37:44;;;;;;;16.03;13.37;;;;;;;;;;5063258;28;20236;-81
2021/04/18 16:40:36;;;;;;;13.70;12.20;;;;;;;;;;5064861;28;20247;-81
2021/04/18 16:43:41;;;;;;;13.37;12.00;;;;;;;;;;5058314;28;20224;-81
2021/04/18 16:46:23;;;;;;;14.63;12.53;;;;;;;;;;5060200;28;20660;-82
2021/04/18 16:49:15;;;;;;;13.73;11.73;;;;;;;;;;5046439;28;20217;-83
2021/04/18 16:52:09;;;;;;;15.07;11.97;;;;;;;;;;5040652;28;20225;-83
2021/04/18 16:54:55;;;;;;;13.23;11.83;;;;;;;;;;5042147;28;20218;-83
2021/04/18 16:57:35;;;;;;;13.87;12.40;;;;;;;;;;5042890;28;20245;-82
2021/04/18 17:00:16;;;;;;;13.93;12.33;;;;;;;;;;5046622;28;20233;-81
2021/04/18 17:02:52;;;;;;;12.80;11.50;;;;;;;;;;5052663;28;20220;-80
2021/04/18 17:05:48;;;;;;;13.50;11.87;;;;;;;;;;5063320;28;20232;-80
2021/04/18 17:08:24;;;;;;;12.37;11.07;;;;;;;;;;5063382;28;20228;-80
2021/04/18 17:11:08;;;;;;;12.83;11.07;;;;;;;;;;5037698;28;20241;-81
2021/04/18 17:13:43;;;;;;;12.87;11.47;;;;;;;;;;5044749;28;20252;-80
2021/04/18 17:16:23;;;;;;;12.53;11.23;;;;;;;;;;5024357;28;20245;-81
2021/04/18 17:18:58;;;;;;;12.37;10.80;;;;;;;;;;5023646;28;20237;-81
2021/04/18 17:21:41;;;;;;;12.77;11.47;;;;;;;;;;5024768;28;20233;-84
2021/04/18 17:24:21;;;;;;;12.97;11.67;;;;;;;;;;5023037;28;20240;-83
2021/04/18 17:26:57;;;;;;;12.70;11.33;;;;;;;;;;5043237;28;20225;-81
2021/04/18 17:29:35;;;;;;;12.57;11.23;;;;;;;;;;5043309;28;20234;-83
2021/04/18 17:32:15;;;;;;;12.67;11.37;;;;;;;;;;5043241;28;20232;-84
2021/04/18 17:35:00;;;;;;;11.83;10.47;;;;;;;;;;5042476;28;20249;-83
2021/04/18 17:37:36;;;;;;;12.90;11.60;;;;;;;;;;5027994;28;20537;-82
2021/04/18 17:40:27;;;;;;;14.13;11.23;;;;;;;;;;5042571;28;20222;-82
2021/04/18 17:43:09;;;;;;;11.83;10.53;;;;;;;;;;5043041;28;20218;-84
2021/04/18 17:45:59;;;;;;;12.60;10.50;;;;;;;;;;5033778;28;20223;-83
2021/04/18 17:48:44;;;;;;;11.23;10.07;;;;;;;;;;5027787;28;20234;-82
2021/04/18 17:51:20;;;;;;;11.33;10.13;;;;;;;;;;5027124;28;20245;-83
2021/04/18 17:53:55;;;;;;;11.63;10.50;;;;;;;;;;5042583;28;20252;-82
2021/04/18 17:56:39;;;;;;;11.53;10.40;;;;;;;;;;5024970;28;20960;-83
2021/04/18 17:59:18;;;;;;;11.87;10.67;;;;;;;;;;5042480;28;20279;-83
2021/04/18 18:01:55;;;;;;;11.57;10.43;;;;;;;;;;5019005;28;20588;-83
2021/04/18 18:04:39;;;;;;;11.53;10.27;;;;;;;;;;5021095;28;20238;-83
2021/04/18 18:07:18;;;;;;;12.13;10.83;;;;;;;;;;5036943;28;20239;-83
2021/04/18 18:09:56;;;;;;;11.87;10.57;;;;;;;;;;5032688;28;20237;-83
2021/04/18 18:12:39;;;;;;;11.80;10.60;;;;;;;;;;5054348;28;20258;-81
2021/04/18 18:15:22;;;;;;;12.43;11.00;;;;;;;;;;5071382;28;20220;-82
2021/04/18 18:18:02;;;;;;;11.80;10.60;;;;;;;;;;5065172;28;20304;-82
2021/04/18 18:20:38;;;;;;;11.93;10.43;;;;;;;;;;5051420;28;20233;-82
2021/04/18 18:23:15;;;;;;;12.17;10.50;;;;;;;;;;5059260;28;20226;-82
2021/04/18 18:26:01;;;;;;;11.57;10.13;;;;;;;;;;5048249;28;20641;-82
2021/04/18 18:28:44;;;;;;;11.53;10.33;;;;;;;;;;5060830;28;20306;-82
2021/04/18 18:31:25;;;;;;;11.23;10.13;;;;;;;;;;5071965;28;20597;-83